sensor_id;sensor_type;location;lat;lon;timestamp;pressure;altitude;pressure_sealevel;temperature;humidity
77159;BME280;66129;45.890;13.714;2023-04-25T00:00:56;100366.38;;;7.35;100.00
77159;BME280;66129;45.890;13.714;2023-04-25T00:03:22;100372.50;;;7.09;100.00
77159;BME280;66129;45.890;13.714;2023-04-25T00:05:50;100368.69;;;6.95;100.00
77159;BME280;66129;45.890;13.714;2023-04-25T00:08:17;100415.03;;;7.11;100.00
77159;BME280;66129;45.890;13.714;2023-04-25T00:10:42;100407.91;;;7.00;100.00
77159;BME280;66129;45.890;13.714;2023-04-25T00:13:08;100345.31;;;6.78;100.00
77159;BME280;66129;45.890;13.714;2023-04-25T00:15:36;100345.38;;;6.80;100.00
77159;BME280;66129;45.890;13.714;2023-04-25T00:18:03;100432.59;;;7.32;100.00
77159;BME280;66129;45.890;13.714;2023-04-25T00:20:29;100419.59;;;7.23;100.00
77159;BME280;66129;45.890;13.714;2023-04-25T00:22:55;100431.69;;;7.30;100.00
77159;BME280;66129;45.890;13.714;2023-04-25T00:25:21;100427.00;;;7.45;100.00
77159;BME280;66129;45.890;13.714;2023-04-25T00:27:46;100403.22;;;7.46;100.00
77159;BME280;66129;45.890;13.714;2023-04-25T00:30:12;100411.00;;;7.50;100.00
77159;BME280;66129;45.890;13.714;2023-04-25T00:32:38;100416.47;;;7.33;100.00
77159;BME280;66129;45.890;13.714;2023-04-25T00:35:03;100422.81;;;7.16;100.00
77159;BME280;66129;45.890;13.714;2023-04-25T00:37:29;100419.38;;;7.15;100.00
77159;BME280;66129;45.890;13.714;2023-04-25T00:39:54;100422.13;;;7.23;100.00
77159;BME280;66129;45.890;13.714;2023-04-25T00:42:21;100371.31;;;6.98;100.00
77159;BME280;66129;45.890;13.714;2023-04-25T00:44:47;100420.50;;;7.25;100.00
77159;BME280;66129;45.890;13.714;2023-04-25T00:47:13;100340.09;;;6.74;100.00
77159;BME280;66129;45.890;13.714;2023-04-25T00:49:39;100383.88;;;6.92;100.00
77159;BME280;66129;45.890;13.714;2023-04-25T00:52:04;100424.63;;;6.90;100.00
77159;BME280;66129;45.890;13.714;2023-04-25T00:54:30;100383.91;;;6.62;100.00
77159;BME280;66129;45.890;13.714;2023-04-25T00:56:56;100410.56;;;6.73;100.00
77159;BME280;66129;45.890;13.714;2023-04-25T00:59:22;100412.59;;;6.85;100.00
77159;BME280;66129;45.890;13.714;2023-04-25T01:01:48;100360.13;;;6.62;100.00
77159;BME280;66129;45.890;13.714;2023-04-25T01:04:14;100335.31;;;6.55;100.00
77159;BME280;66129;45.890;13.714;2023-04-25T01:06:40;100385.63;;;6.93;100.00
77159;BME280;66129;45.890;13.714;2023-04-25T01:09:06;100412.00;;;7.24;100.00
77159;BME280;66129;45.890;13.714;2023-04-25T01:11:32;100383.97;;;7.24;100.00
77159;BME280;66129;45.890;13.714;2023-04-25T01:13:58;100412.34;;;7.38;100.00
77159;BME280;66129;45.890;13.714;2023-04-25T01:16:24;100401.09;;;7.30;100.00
77159;BME280;66129;45.890;13.714;2023-04-25T01:18:50;100402.50;;;7.19;100.00
77159;BME280;66129;45.890;13.714;2023-04-25T01:21:16;100365.09;;;6.87;100.00
77159;BME280;66129;45.890;13.714;2023-04-25T01:23:42;100410.53;;;7.03;100.00
77159;BME280;66129;45.890;13.714;2023-04-25T01:26:09;100404.25;;;6.90;100.00
77159;BME280;66129;45.890;13.714;2023-04-25T01:28:36;100394.78;;;6.86;100.00
77159;BME280;66129;45.890;13.714;2023-04-25T01:31:02;100381.56;;;6.70;100.00
77159;BME280;66129;45.890;13.714;2023-04-25T01:33:29;100412.50;;;6.82;100.00
77159;BME280;66129;45.890;13.714;2023-04-25T01:35:54;100402.34;;;6.83;100.00
77159;BME280;66129;45.890;13.714;2023-04-25T01:38:20;100351.97;;;6.73;100.00
77159;BME280;66129;45.890;13.714;2023-04-25T01:40:46;100374.13;;;6.77;100.00
77159;BME280;66129;45.890;13.714;2023-04-25T01:43:14;100367.84;;;6.65;100.00
77159;BME280;66129;45.890;13.714;2023-04-25T01:45:43;100414.53;;;6.93;100.00
77159;BME280;66129;45.890;13.714;2023-04-25T01:48:13;100324.25;;;6.55;100.00
77159;BME280;66129;45.890;13.714;2023-04-25T01:50:39;100322.50;;;6.52;100.00
77159;BME280;66129;45.890;13.714;2023-04-25T01:53:05;100330.16;;;6.54;100.00
77159;BME280;66129;45.890;13.714;2023-04-25T01:55:31;100400.34;;;7.03;100.00
77159;BME280;66129;45.890;13.714;2023-04-25T01:57:57;100401.06;;;6.97;100.00
77159;BME280;66129;45.890;13.714;2023-04-25T02:00:22;100317.25;;;6.48;100.00
77159;BME280;66129;45.890;13.714;2023-04-25T02:02:48;100316.22;;;6.41;100.00
77159;BME280;66129;45.890;13.714;2023-04-25T02:05:16;100393.16;;;6.90;100.00
77159;BME280;66129;45.890;13.714;2023-04-25T02:07:42;100348.25;;;6.62;100.00
77159;BME280;66129;45.890;13.714;2023-04-25T02:10:08;100384.41;;;6.80;100.00
77159;BME280;66129;45.890;13.714;2023-04-25T02:12:34;100381.06;;;6.81;100.00
77159;BME280;66129;45.890;13.714;2023-04-25T02:15:00;100338.78;;;6.57;100.00
77159;BME280;66129;45.890;13.714;2023-04-25T02:17:25;100341.09;;;6.50;100.00
77159;BME280;66129;45.890;13.714;2023-04-25T02:19:51;100378.75;;;6.61;100.00
77159;BME280;66129;45.890;13.714;2023-04-25T02:22:17;100340.75;;;6.38;100.00
77159;BME280;66129;45.890;13.714;2023-04-25T02:24:42;100338.81;;;6.29;100.00
77159;BME280;66129;45.890;13.714;2023-04-25T02:27:08;100355.28;;;6.42;100.00
77159;BME280;66129;45.890;13.714;2023-04-25T02:29:33;100357.13;;;6.47;100.00
77159;BME280;66129;45.890;13.714;2023-04-25T02:31:59;100397.66;;;6.69;100.00
77159;BME280;66129;45.890;13.714;2023-04-25T02:34:24;100391.75;;;6.70;100.00
77159;BME280;66129;45.890;13.714;2023-04-25T02:36:50;100385.03;;;6.72;100.00
77159;BME280;66129;45.890;13.714;2023-04-25T02:39:18;100325.97;;;6.56;100.00
77159;BME280;66129;45.890;13.714;2023-04-25T02:41:44;100380.53;;;6.93;100.00
77159;BME280;66129;45.890;13.714;2023-04-25T02:44:09;100350.28;;;6.74;100.00
77159;BME280;66129;45.890;13.714;2023-04-25T02:46:35;100344.09;;;6.66;100.00
77159;BME280;66129;45.890;13.714;2023-04-25T02:49:01;100326.16;;;6.61;100.00
77159;BME280;66129;45.890;13.714;2023-04-25T02:51:26;100381.69;;;7.04;100.00
77159;BME280;66129;45.890;13.714;2023-04-25T02:53:52;100374.75;;;6.98;100.00
77159;BME280;66129;45.890;13.714;2023-04-25T02:56:17;100364.34;;;6.91;100.00
77159;BME280;66129;45.890;13.714;2023-04-25T02:58:43;100357.50;;;6.90;100.00
77159;BME280;66129;45.890;13.714;2023-04-25T03:01:08;100385.13;;;7.04;100.00
77159;BME280;66129;45.890;13.714;2023-04-25T03:03:34;100329.72;;;6.68;100.00
77159;BME280;66129;45.890;13.714;2023-04-25T03:05:59;100358.19;;;6.83;100.00
77159;BME280;66129;45.890;13.714;2023-04-25T03:08:25;100384.88;;;6.97;100.00
77159;BME280;66129;45.890;13.714;2023-04-25T03:10:54;100380.97;;;7.09;100.00
77159;BME280;66129;45.890;13.714;2023-04-25T03:13:20;100349.31;;;7.00;100.00
77159;BME280;66129;45.890;13.714;2023-04-25T03:15:46;100394.19;;;7.26;100.00
77159;BME280;66129;45.890;13.714;2023-04-25T03:18:11;100352.81;;;7.03;100.00
77159;BME280;66129;45.890;13.714;2023-04-25T03:20:37;100311.28;;;6.76;100.00
77159;BME280;66129;45.890;13.714;2023-04-25T03:23:04;100387.16;;;7.17;100.00
77159;BME280;66129;45.890;13.714;2023-04-25T03:25:30;100330.94;;;6.80;100.00
77159;BME280;66129;45.890;13.714;2023-04-25T03:27:55;100371.47;;;7.02;100.00
77159;BME280;66129;45.890;13.714;2023-04-25T03:30:21;100357.31;;;6.82;100.00
77159;BME280;66129;45.890;13.714;2023-04-25T03:32:46;100348.16;;;6.89;100.00
77159;BME280;66129;45.890;13.714;2023-04-25T03:35:12;100310.25;;;6.70;100.00
77159;BME280;66129;45.890;13.714;2023-04-25T03:37:38;100299.44;;;6.77;100.00
77159;BME280;66129;45.890;13.714;2023-04-25T03:40:03;100383.25;;;7.30;100.00
77159;BME280;66129;45.890;13.714;2023-04-25T03:42:29;100364.03;;;7.10;100.00
77159;BME280;66129;45.890;13.714;2023-04-25T03:44:55;100323.72;;;6.66;100.00
77159;BME280;66129;45.890;13.714;2023-04-25T03:47:20;100383.34;;;7.02;100.00
77159;BME280;66129;45.890;13.714;2023-04-25T03:49:46;100389.91;;;7.25;100.00
77159;BME280;66129;45.890;13.714;2023-04-25T03:52:11;100300.69;;;6.92;100.00
77159;BME280;66129;45.890;13.714;2023-04-25T03:54:37;100338.84;;;7.22;100.00
77159;BME280;66129;45.890;13.714;2023-04-25T03:57:02;100377.75;;;7.47;100.00
77159;BME280;66129;45.890;13.714;2023-04-25T03:59:28;100344.00;;;7.23;99.51
77159;BME280;66129;45.890;13.714;2023-04-25T04:01:54;100342.94;;;7.15;99.73
77159;BME280;66129;45.890;13.714;2023-04-25T04:04:19;100380.88;;;7.37;100.00
77159;BME280;66129;45.890;13.714;2023-04-25T04:06:45;100367.31;;;7.38;99.84
77159;BME280;66129;45.890;13.714;2023-04-25T04:09:11;100298.53;;;7.07;99.58
77159;BME280;66129;45.890;13.714;2023-04-25T04:11:38;100379.91;;;7.65;98.78
77159;BME280;66129;45.890;13.714;2023-04-25T04:14:05;100322.88;;;7.27;98.93
77159;BME280;66129;45.890;13.714;2023-04-25T04:16:31;100348.69;;;7.41;99.80
77159;BME280;66129;45.890;13.714;2023-04-25T04:18:56;100342.50;;;7.31;99.66
77159;BME280;66129;45.890;13.714;2023-04-25T04:21:22;100378.63;;;7.48;99.89
77159;BME280;66129;45.890;13.714;2023-04-25T04:23:47;100333.63;;;7.16;100.00
77159;BME280;66129;45.890;13.714;2023-04-25T04:26:14;100338.06;;;7.24;99.56
77159;BME280;66129;45.890;13.714;2023-04-25T04:28:42;100349.38;;;7.34;99.34
77159;BME280;66129;45.890;13.714;2023-04-25T04:31:09;100361.25;;;7.33;99.22
77159;BME280;66129;45.890;13.714;2023-04-25T04:33:35;100370.84;;;7.11;100.00
77159;BME280;66129;45.890;13.714;2023-04-25T04:36:02;100368.03;;;7.00;100.00
77159;BME280;66129;45.890;13.714;2023-04-25T04:38:28;100364.47;;;6.95;100.00
77159;BME280;66129;45.890;13.714;2023-04-25T04:40:54;100364.69;;;7.35;100.00
77159;BME280;66129;45.890;13.714;2023-04-25T04:43:21;100362.38;;;7.76;98.92
77159;BME280;66129;45.890;13.714;2023-04-25T04:45:48;100356.69;;;8.23;96.34
77159;BME280;66129;45.890;13.714;2023-04-25T04:48:14;100369.66;;;8.72;93.97
77159;BME280;66129;45.890;13.714;2023-04-25T04:50:40;100352.84;;;8.83;91.29
77159;BME280;66129;45.890;13.714;2023-04-25T04:53:06;100357.50;;;9.03;90.79
77159;BME280;66129;45.890;13.714;2023-04-25T04:55:32;100348.69;;;9.32;89.90
77159;BME280;66129;45.890;13.714;2023-04-25T04:57:57;100342.13;;;9.48;89.24
77159;BME280;66129;45.890;13.714;2023-04-25T05:00:23;100336.13;;;9.44;87.77
77159;BME280;66129;45.890;13.714;2023-04-25T05:02:48;100328.00;;;9.69;87.78
77159;BME280;66129;45.890;13.714;2023-04-25T05:05:14;100332.72;;;9.98;86.53
77159;BME280;66129;45.890;13.714;2023-04-25T05:07:40;100332.34;;;10.28;85.40
77159;BME280;66129;45.890;13.714;2023-04-25T05:10:05;100316.34;;;10.47;83.83
77159;BME280;66129;45.890;13.714;2023-04-25T05:12:31;100331.03;;;10.58;83.61
77159;BME280;66129;45.890;13.714;2023-04-25T05:14:57;100326.25;;;10.87;83.42
77159;BME280;66129;45.890;13.714;2023-04-25T05:17:22;100311.84;;;10.99;80.83
77159;BME280;66129;45.890;13.714;2023-04-25T05:19:48;100264.09;;;11.11;79.27
77159;BME280;66129;45.890;13.714;2023-04-25T05:22:13;100324.47;;;11.63;78.56
77159;BME280;66129;45.890;13.714;2023-04-25T05:24:39;100311.00;;;11.94;76.11
77159;BME280;66129;45.890;13.714;2023-04-25T05:27:04;100302.59;;;12.20;75.56
77159;BME280;66129;45.890;13.714;2023-04-25T05:29:30;100280.38;;;12.29;75.52
77159;BME280;66129;45.890;13.714;2023-04-25T05:31:56;100249.59;;;12.41;72.57
77159;BME280;66129;45.890;13.714;2023-04-25T05:34:21;100294.44;;;13.20;73.41
77159;BME280;66129;45.890;13.714;2023-04-25T05:36:47;100291.84;;;13.09;71.90
77159;BME280;66129;45.890;13.714;2023-04-25T05:39:15;100296.97;;;13.11;72.43
77159;BME280;66129;45.890;13.714;2023-04-25T05:41:42;100249.81;;;13.38;74.19
77159;BME280;66129;45.890;13.714;2023-04-25T05:44:07;100295.25;;;14.28;71.83
77159;BME280;66129;45.890;13.714;2023-04-25T05:46:54;100239.34;;;14.39;69.18
77159;BME280;66129;45.890;13.714;2023-04-25T05:49:19;100240.91;;;14.71;68.73
77159;BME280;66129;45.890;13.714;2023-04-25T05:51:44;100246.53;;;15.33;69.37
77159;BME280;66129;45.890;13.714;2023-04-25T05:54:10;100297.03;;;15.68;66.18
77159;BME280;66129;45.890;13.714;2023-04-25T05:56:41;100318.53;;;16.62;62.70
77159;BME280;66129;45.890;13.714;2023-04-25T05:59:10;100236.56;;;16.62;60.38
77159;BME280;66129;45.890;13.714;2023-04-25T06:01:35;100301.06;;;15.99;64.09
77159;BME280;66129;45.890;13.714;2023-04-25T06:04:01;100297.25;;;15.44;65.66
77159;BME280;66129;45.890;13.714;2023-04-25T06:06:26;100253.63;;;14.99;66.58
77159;BME280;66129;45.890;13.714;2023-04-25T06:08:53;100283.84;;;14.79;68.60
77159;BME280;66129;45.890;13.714;2023-04-25T06:11:21;100284.88;;;14.50;72.02
77159;BME280;66129;45.890;13.714;2023-04-25T06:13:48;100288.22;;;14.64;70.86
77159;BME280;66129;45.890;13.714;2023-04-25T06:16:13;100313.19;;;14.59;73.07
77159;BME280;66129;45.890;13.714;2023-04-25T06:18:38;100330.47;;;14.33;72.57
77159;BME280;66129;45.890;13.714;2023-04-25T06:21:04;100315.88;;;14.08;74.36
77159;BME280;66129;45.890;13.714;2023-04-25T06:23:30;100298.75;;;13.46;74.25
77159;BME280;66129;45.890;13.714;2023-04-25T06:25:55;100269.44;;;12.83;76.83
77159;BME280;66129;45.890;13.714;2023-04-25T06:28:20;100315.88;;;13.11;77.79
77159;BME280;66129;45.890;13.714;2023-04-25T06:30:47;100321.00;;;13.13;78.61
77159;BME280;66129;45.890;13.714;2023-04-25T06:33:12;100287.56;;;13.17;77.03
77159;BME280;66129;45.890;13.714;2023-04-25T06:35:38;100284.13;;;13.87;74.04
77159;BME280;66129;45.890;13.714;2023-04-25T06:38:03;100296.16;;;13.97;73.99
77159;BME280;66129;45.890;13.714;2023-04-25T06:40:29;100338.25;;;13.91;73.90
77159;BME280;66129;45.890;13.714;2023-04-25T06:42:54;100282.44;;;13.42;75.14
77159;BME280;66129;45.890;13.714;2023-04-25T06:45:20;100272.97;;;13.21;75.91
77159;BME280;66129;45.890;13.714;2023-04-25T06:47:45;100340.81;;;13.48;77.77
77159;BME280;66129;45.890;13.714;2023-04-25T06:50:11;100321.03;;;13.29;78.36
77159;BME280;66129;45.890;13.714;2023-04-25T06:52:37;100342.50;;;13.38;78.88
77159;BME280;66129;45.890;13.714;2023-04-25T06:55:02;100333.06;;;13.30;82.06
77159;BME280;66129;45.890;13.714;2023-04-25T06:57:30;100337.34;;;13.19;80.81
77159;BME280;66129;45.890;13.714;2023-04-25T06:59:55;100352.75;;;13.22;81.27
77159;BME280;66129;45.890;13.714;2023-04-25T07:02:20;100299.53;;;13.03;81.94
77159;BME280;66129;45.890;13.714;2023-04-25T07:04:47;100352.81;;;13.46;81.36
77159;BME280;66129;45.890;13.714;2023-04-25T07:07:13;100336.50;;;13.48;79.55
77159;BME280;66129;45.890;13.714;2023-04-25T07:09:38;100324.50;;;13.47;79.79
77159;BME280;66129;45.890;13.714;2023-04-25T07:12:04;100303.03;;;13.31;79.65
77159;BME280;66129;45.890;13.714;2023-04-25T07:14:30;100355.41;;;13.61;80.69
77159;BME280;66129;45.890;13.714;2023-04-25T07:16:55;100368.28;;;13.55;80.83
77159;BME280;66129;45.890;13.714;2023-04-25T07:19:22;100335.63;;;13.26;80.28
77159;BME280;66129;45.890;13.714;2023-04-25T07:21:49;100321.84;;;12.97;81.06
77159;BME280;66129;45.890;13.714;2023-04-25T07:24:14;100294.25;;;12.64;81.99
77159;BME280;66129;45.890;13.714;2023-04-25T07:26:40;100348.34;;;12.85;83.33
77159;BME280;66129;45.890;13.714;2023-04-25T07:29:05;100354.31;;;12.74;84.12
77159;BME280;66129;45.890;13.714;2023-04-25T07:31:31;100368.06;;;12.83;83.88
77159;BME280;66129;45.890;13.714;2023-04-25T07:33:56;100325.88;;;12.44;83.64
77159;BME280;66129;45.890;13.714;2023-04-25T07:36:22;100373.06;;;12.55;85.58
77159;BME280;66129;45.890;13.714;2023-04-25T07:38:49;100319.75;;;12.24;86.02
77159;BME280;66129;45.890;13.714;2023-04-25T07:41:15;100391.06;;;12.56;85.69
77159;BME280;66129;45.890;13.714;2023-04-25T07:43:40;100324.00;;;12.19;85.34
77159;BME280;66129;45.890;13.714;2023-04-25T07:46:06;100393.63;;;12.53;84.97
77159;BME280;66129;45.890;13.714;2023-04-25T07:48:33;100337.66;;;12.11;85.35
77159;BME280;66129;45.890;13.714;2023-04-25T07:50:58;100360.94;;;12.33;84.63
77159;BME280;66129;45.890;13.714;2023-04-25T07:53:24;100349.84;;;12.41;84.26
77159;BME280;66129;45.890;13.714;2023-04-25T07:55:50;100311.28;;;12.37;83.09
77159;BME280;66129;45.890;13.714;2023-04-25T07:58:16;100302.72;;;12.39;81.31
77159;BME280;66129;45.890;13.714;2023-04-25T08:00:46;100392.13;;;12.91;81.90
77159;BME280;66129;45.890;13.714;2023-04-25T08:03:12;100315.59;;;12.44;81.07
77159;BME280;66129;45.890;13.714;2023-04-25T08:05:38;100371.44;;;12.78;82.34
77159;BME280;66129;45.890;13.714;2023-04-25T08:08:03;100386.94;;;12.90;82.61
77159;BME280;66129;45.890;13.714;2023-04-25T08:10:33;100342.22;;;12.62;82.70
77159;BME280;66129;45.890;13.714;2023-04-25T08:13:00;100337.06;;;12.55;83.18
77159;BME280;66129;45.890;13.714;2023-04-25T08:15:25;100341.38;;;12.62;81.92
77159;BME280;66129;45.890;13.714;2023-04-25T08:17:51;100372.31;;;12.83;81.96
77159;BME280;66129;45.890;13.714;2023-04-25T08:20:17;100420.53;;;13.12;81.87
77159;BME280;66129;45.890;13.714;2023-04-25T08:22:43;100429.09;;;13.16;81.01
77159;BME280;66129;45.890;13.714;2023-04-25T08:25:08;100355.13;;;12.76;81.12
77159;BME280;66129;45.890;13.714;2023-04-25T08:27:34;100426.53;;;13.14;82.00
77159;BME280;66129;45.890;13.714;2023-04-25T08:30:00;100427.44;;;13.28;82.54
77159;BME280;66129;45.890;13.714;2023-04-25T08:32:25;100383.59;;;13.03;82.27
77159;BME280;66129;45.890;13.714;2023-04-25T08:34:51;100363.88;;;12.99;81.50
77159;BME280;66129;45.890;13.714;2023-04-25T08:37:19;100368.16;;;13.09;82.50
77159;BME280;66129;45.890;13.714;2023-04-25T08:39:45;100386.25;;;13.27;79.08
77159;BME280;66129;45.890;13.714;2023-04-25T08:42:14;100368.19;;;13.12;80.14
77159;BME280;66129;45.890;13.714;2023-04-25T08:44:40;100411.13;;;13.26;80.72
77159;BME280;66129;45.890;13.714;2023-04-25T08:47:06;100451.53;;;13.48;80.42
77159;BME280;66129;45.890;13.714;2023-04-25T08:49:32;100383.63;;;13.07;80.45
77159;BME280;66129;45.890;13.714;2023-04-25T08:52:05;100430.91;;;13.42;78.87
77159;BME280;66129;45.890;13.714;2023-04-25T08:54:32;100425.78;;;13.46;80.58
77159;BME280;66129;45.890;13.714;2023-04-25T08:57:01;100393.09;;;13.22;80.00
77159;BME280;66129;45.890;13.714;2023-04-25T08:59:41;100401.69;;;13.27;80.42
77159;BME280;66129;45.890;13.714;2023-04-25T09:02:11;100471.31;;;13.67;81.60
77159;BME280;66129;45.890;13.714;2023-04-25T09:04:40;100408.53;;;13.26;80.56
77159;BME280;66129;45.890;13.714;2023-04-25T09:07:06;100427.44;;;13.30;78.83
77159;BME280;66129;45.890;13.714;2023-04-25T09:09:41;100468.59;;;13.25;80.65
77159;BME280;66129;45.890;13.714;2023-04-25T09:12:10;100419.53;;;12.86;81.95
77159;BME280;66129;45.890;13.714;2023-04-25T09:15:08;100412.59;;;12.76;81.21
77159;BME280;66129;45.890;13.714;2023-04-25T09:17:35;100486.53;;;13.07;81.96
77159;BME280;66129;45.890;13.714;2023-04-25T09:20:13;100417.59;;;12.49;82.74
77159;BME280;66129;45.890;13.714;2023-04-25T09:22:40;100429.56;;;12.43;83.62
77159;BME280;66129;45.890;13.714;2023-04-25T09:25:13;100488.09;;;12.84;82.66
77159;BME280;66129;45.890;13.714;2023-04-25T09:27:52;100420.03;;;12.34;80.33
77159;BME280;66129;45.890;13.714;2023-04-25T09:30:18;100449.13;;;12.30;79.20
77159;BME280;66129;45.890;13.714;2023-04-25T09:32:44;100438.88;;;12.29;80.35
77159;BME280;66129;45.890;13.714;2023-04-25T09:35:10;100422.47;;;12.14;79.94
77159;BME280;66129;45.890;13.714;2023-04-25T09:37:48;100511.06;;;12.59;80.46
77159;BME280;66129;45.890;13.714;2023-04-25T09:40:14;100511.91;;;12.53;80.03
77159;BME280;66129;45.890;13.714;2023-04-25T09:42:41;100451.59;;;12.17;80.29
77159;BME280;66129;45.890;13.714;2023-04-25T09:45:07;100474.00;;;12.31;81.00
77159;BME280;66129;45.890;13.714;2023-04-25T09:47:37;100458.63;;;12.36;81.93
77159;BME280;66129;45.890;13.714;2023-04-25T09:50:03;100479.28;;;12.46;79.85
77159;BME280;66129;45.890;13.714;2023-04-25T09:52:38;100446.72;;;12.48;79.97
77159;BME280;66129;45.890;13.714;2023-04-25T09:55:05;100453.59;;;12.54;78.41
77159;BME280;66129;45.890;13.714;2023-04-25T09:57:31;100448.47;;;12.57;80.61
77159;BME280;66129;45.890;13.714;2023-04-25T09:59:59;100410.69;;;12.42;78.63
77159;BME280;66129;45.890;13.714;2023-04-25T10:02:27;100398.69;;;12.44;78.31
77159;BME280;66129;45.890;13.714;2023-04-25T10:04:54;100482.19;;;12.93;78.65
77159;BME280;66129;45.890;13.714;2023-04-25T10:07:24;100397.84;;;12.42;79.01
77159;BME280;66129;45.890;13.714;2023-04-25T10:10:03;100398.78;;;12.53;77.79
77159;BME280;66129;45.890;13.714;2023-04-25T10:12:30;100438.44;;;12.93;77.95
77159;BME280;66129;45.890;13.714;2023-04-25T10:14:58;100461.72;;;13.20;76.86
77159;BME280;66129;45.890;13.714;2023-04-25T10:17:26;100425.63;;;12.99;75.69
77159;BME280;66129;45.890;13.714;2023-04-25T10:19:54;100425.66;;;13.11;77.94
77159;BME280;66129;45.890;13.714;2023-04-25T10:22:32;100473.78;;;13.35;75.45
77159;BME280;66129;45.890;13.714;2023-04-25T10:24:58;100459.97;;;13.13;76.01
77159;BME280;66129;45.890;13.714;2023-04-25T10:27:27;100456.56;;;13.17;74.80
77159;BME280;66129;45.890;13.714;2023-04-25T10:30:10;100441.09;;;13.09;75.71
77159;BME280;66129;45.890;13.714;2023-04-25T10:32:41;100442.78;;;13.09;75.69
77159;BME280;66129;45.890;13.714;2023-04-25T10:37:36;100449.66;;;13.04;76.21
77159;BME280;66129;45.890;13.714;2023-04-25T10:40:08;100472.81;;;13.08;77.75
77159;BME280;66129;45.890;13.714;2023-04-25T10:42:35;100439.28;;;12.92;78.04
77159;BME280;66129;45.890;13.714;2023-04-25T10:45:03;100445.28;;;12.91;77.88
77159;BME280;66129;45.890;13.714;2023-04-25T10:47:36;100442.66;;;12.88;77.50
77159;BME280;66129;45.890;13.714;2023-04-25T10:50:07;100458.22;;;13.04;77.12
77159;BME280;66129;45.890;13.714;2023-04-25T10:52:33;100457.41;;;13.11;77.31
77159;BME280;66129;45.890;13.714;2023-04-25T10:54:59;100453.09;;;13.12;76.12
77159;BME280;66129;45.890;13.714;2023-04-25T11:02:40;100438.59;;;13.29;77.39
77159;BME280;66129;45.890;13.714;2023-04-25T11:05:06;100447.19;;;13.28;75.59
77159;BME280;66129;45.890;13.714;2023-04-25T11:07:38;100447.13;;;13.17;75.86
77159;BME280;66129;45.890;13.714;2023-04-25T11:10:04;100430.00;;;13.25;77.13
77159;BME280;66129;45.890;13.714;2023-04-25T11:12:31;100445.44;;;13.25;76.17
77159;BME280;66129;45.890;13.714;2023-04-25T11:15:05;100409.34;;;13.07;76.05
77159;BME280;66129;45.890;13.714;2023-04-25T11:17:31;100434.28;;;13.23;75.95
77159;BME280;66129;45.890;13.714;2023-04-25T11:19:57;100416.16;;;12.96;74.73
77159;BME280;66129;45.890;13.714;2023-04-25T11:22:23;100396.41;;;12.92;74.26
77159;BME280;66129;45.890;13.714;2023-04-25T11:24:49;100445.41;;;13.15;75.68
77159;BME280;66129;45.890;13.714;2023-04-25T11:27:15;100380.91;;;12.85;74.35
77159;BME280;66129;45.890;13.714;2023-04-25T11:29:41;100419.56;;;12.95;74.92
77159;BME280;66129;45.890;13.714;2023-04-25T11:32:06;100426.47;;;13.01;74.75
77159;BME280;66129;45.890;13.714;2023-04-25T11:34:33;100397.19;;;12.79;73.19
77159;BME280;66129;45.890;13.714;2023-04-25T11:37:02;100432.50;;;13.07;74.15
77159;BME280;66129;45.890;13.714;2023-04-25T11:39:28;100373.16;;;12.79;74.35
77159;BME280;66129;45.890;13.714;2023-04-25T11:42:00;100350.84;;;12.75;73.15
77159;BME280;66129;45.890;13.714;2023-04-25T11:44:28;100400.72;;;12.96;72.76
77159;BME280;66129;45.890;13.714;2023-04-25T11:46:53;100386.94;;;12.88;73.57
77159;BME280;66129;45.890;13.714;2023-04-25T11:49:23;100402.47;;;12.99;72.26
77159;BME280;66129;45.890;13.714;2023-04-25T11:51:51;100402.34;;;12.87;72.11
77159;BME280;66129;45.890;13.714;2023-04-25T11:54:16;100428.16;;;12.97;72.84
77159;BME280;66129;45.890;13.714;2023-04-25T11:56:43;100386.84;;;12.67;73.64
77159;BME280;66129;45.890;13.714;2023-04-25T11:59:08;100425.56;;;12.91;75.10
77159;BME280;66129;45.890;13.714;2023-04-25T12:01:36;100402.25;;;12.67;74.44
77159;BME280;66129;45.890;13.714;2023-04-25T12:06:41;100381.69;;;12.67;74.01
77159;BME280;66129;45.890;13.714;2023-04-25T12:09:09;100429.88;;;12.95;76.28
77159;BME280;66129;45.890;13.714;2023-04-25T12:11:46;100373.97;;;12.63;74.41
77159;BME280;66129;45.890;13.714;2023-04-25T12:14:20;100355.84;;;12.42;74.77
77159;BME280;66129;45.890;13.714;2023-04-25T12:16:48;100422.13;;;12.91;73.98
77159;BME280;66129;45.890;13.714;2023-04-25T12:19:15;100394.59;;;12.81;75.70
77159;BME280;66129;45.890;13.714;2023-04-25T12:21:41;100415.28;;;12.97;75.32
77159;BME280;66129;45.890;13.714;2023-04-25T12:24:16;100378.25;;;12.68;75.83
77159;BME280;66129;45.890;13.714;2023-04-25T12:26:48;100407.56;;;12.93;76.23
77159;BME280;66129;45.890;13.714;2023-04-25T12:29:25;100351.63;;;12.56;76.15
77159;BME280;66129;45.890;13.714;2023-04-25T12:31:52;100401.56;;;12.95;77.28
77159;BME280;66129;45.890;13.714;2023-04-25T12:34:25;100341.38;;;12.66;77.22
77159;BME280;66129;45.890;13.714;2023-04-25T12:36:52;100382.66;;;12.89;75.12
77159;BME280;66129;45.890;13.714;2023-04-25T12:39:19;100383.53;;;12.92;76.32
77159;BME280;66129;45.890;13.714;2023-04-25T12:41:50;100350.84;;;12.75;75.09
77159;BME280;66129;45.890;13.714;2023-04-25T12:44:21;100325.13;;;12.67;75.07
77159;BME280;66129;45.890;13.714;2023-04-25T12:46:47;100339.72;;;12.74;74.91
77159;BME280;66129;45.890;13.714;2023-04-25T12:49:13;100325.16;;;12.73;75.17